sensor_id;sensor_type;location;lat;lon;timestamp;temperature;humidity
3866;DHT22;1948;53.250;10.412;2023-04-26T00:01:20;5.10;99.90
3866;DHT22;1948;53.250;10.412;2023-04-26T00:04:09;5.00;99.90
3866;DHT22;1948;53.250;10.412;2023-04-26T00:06:52;5.00;99.90
3866;DHT22;1948;53.250;10.412;2023-04-26T00:09:20;5.00;99.90
3866;DHT22;1948;53.250;10.412;2023-04-26T00:11:48;5.00;99.90
3866;DHT22;1948;53.250;10.412;2023-04-26T00:14:42;5.00;99.90
3866;DHT22;1948;53.250;10.412;2023-04-26T00:17:16;5.10;99.90
3866;DHT22;1948;53.250;10.412;2023-04-26T00:19:45;5.00;99.90
3866;DHT22;1948;53.250;10.412;2023-04-26T00:22:27;5.00;99.90
3866;DHT22;1948;53.250;10.412;2023-04-26T00:25:12;4.90;99.90
3866;DHT22;1948;53.250;10.412;2023-04-26T00:27:45;4.90;99.90
3866;DHT22;1948;53.250;10.412;2023-04-26T00:30:21;4.90;99.90
3866;DHT22;1948;53.250;10.412;2023-04-26T00:32:48;4.90;99.90
3866;DHT22;1948;53.250;10.412;2023-04-26T00:35:18;4.90;99.90
3866;DHT22;1948;53.250;10.412;2023-04-26T00:37:45;4.90;99.90
3866;DHT22;1948;53.250;10.412;2023-04-26T00:40:17;4.90;99.90
3866;DHT22;1948;53.250;10.412;2023-04-26T00:42:46;4.80;99.90
3866;DHT22;1948;53.250;10.412;2023-04-26T00:45:15;4.80;99.90
3866;DHT22;1948;53.250;10.412;2023-04-26T00:47:45;4.90;99.90
3866;DHT22;1948;53.250;10.412;2023-04-26T00:50:13;4.80;99.90
3866;DHT22;1948;53.250;10.412;2023-04-26T00:52:43;4.80;99.90
3866;DHT22;1948;53.250;10.412;2023-04-26T00:55:13;4.80;99.90
3866;DHT22;1948;53.250;10.412;2023-04-26T00:57:40;4.80;99.90
3866;DHT22;1948;53.250;10.412;2023-04-26T01:00:08;4.80;99.90
3866;DHT22;1948;53.250;10.412;2023-04-26T01:02:35;4.90;99.90
3866;DHT22;1948;53.250;10.412;2023-04-26T01:05:04;4.90;99.90
3866;DHT22;1948;53.250;10.412;2023-04-26T01:07:34;5.00;99.90
3866;DHT22;1948;53.250;10.412;2023-04-26T01:10:03;5.00;99.90
3866;DHT22;1948;53.250;10.412;2023-04-26T01:12:36;5.00;99.90
3866;DHT22;1948;53.250;10.412;2023-04-26T01:15:06;4.90;99.90
3866;DHT22;1948;53.250;10.412;2023-04-26T01:17:39;4.90;99.90
3866;DHT22;1948;53.250;10.412;2023-04-26T01:20:06;5.00;99.90
3866;DHT22;1948;53.250;10.412;2023-04-26T01:22:36;5.00;99.90
3866;DHT22;1948;53.250;10.412;2023-04-26T01:25:06;5.00;99.90
3866;DHT22;1948;53.250;10.412;2023-04-26T01:27:35;5.00;99.90
3866;DHT22;1948;53.250;10.412;2023-04-26T01:30:02;5.10;99.90
3866;DHT22;1948;53.250;10.412;2023-04-26T01:32:35;5.10;99.90
3866;DHT22;1948;53.250;10.412;2023-04-26T01:35:05;5.00;99.90
3866;DHT22;1948;53.250;10.412;2023-04-26T01:37:32;5.00;99.90
3866;DHT22;1948;53.250;10.412;2023-04-26T01:40:02;5.00;99.90
3866;DHT22;1948;53.250;10.412;2023-04-26T01:42:32;4.90;99.90
3866;DHT22;1948;53.250;10.412;2023-04-26T01:44:59;4.90;99.90
3866;DHT22;1948;53.250;10.412;2023-04-26T01:47:26;4.80;99.90
3866;DHT22;1948;53.250;10.412;2023-04-26T01:49:53;4.80;99.90
3866;DHT22;1948;53.250;10.412;2023-04-26T01:52:21;4.80;99.90
3866;DHT22;1948;53.250;10.412;2023-04-26T01:54:48;4.80;99.90
3866;DHT22;1948;53.250;10.412;2023-04-26T01:57:15;4.70;99.90
3866;DHT22;1948;53.250;10.412;2023-04-26T01:59:42;4.70;99.90
3866;DHT22;1948;53.250;10.412;2023-04-26T02:02:09;4.60;99.90
3866;DHT22;1948;53.250;10.412;2023-04-26T02:04:36;4.60;99.90
3866;DHT22;1948;53.250;10.412;2023-04-26T02:07:03;4.60;99.90
3866;DHT22;1948;53.250;10.412;2023-04-26T02:09:37;4.50;99.90
3866;DHT22;1948;53.250;10.412;2023-04-26T02:12:04;4.50;99.90
3866;DHT22;1948;53.250;10.412;2023-04-26T02:14:34;4.40;99.90
3866;DHT22;1948;53.250;10.412;2023-04-26T02:17:00;4.50;99.90
3866;DHT22;1948;53.250;10.412;2023-04-26T02:19:31;4.50;99.90
3866;DHT22;1948;53.250;10.412;2023-04-26T02:21:58;4.50;99.90
3866;DHT22;1948;53.250;10.412;2023-04-26T02:24:25;4.50;99.90
3866;DHT22;1948;53.250;10.412;2023-04-26T02:26:52;4.60;99.90
3866;DHT22;1948;53.250;10.412;2023-04-26T02:29:20;4.60;99.90
3866;DHT22;1948;53.250;10.412;2023-04-26T02:32:08;4.60;99.90
3866;DHT22;1948;53.250;10.412;2023-04-26T02:34:35;4.70;99.90
3866;DHT22;1948;53.250;10.412;2023-04-26T02:37:04;4.70;99.90
3866;DHT22;1948;53.250;10.412;2023-04-26T02:39:31;4.70;99.90
3866;DHT22;1948;53.250;10.412;2023-04-26T02:41:58;4.80;99.90
3866;DHT22;1948;53.250;10.412;2023-04-26T02:44:28;4.90;99.90
3866;DHT22;1948;53.250;10.412;2023-04-26T02:46:56;5.10;99.90
3866;DHT22;1948;53.250;10.412;2023-04-26T02:49:26;5.20;99.90
3866;DHT22;1948;53.250;10.412;2023-04-26T02:51:53;5.10;99.90
3866;DHT22;1948;53.250;10.412;2023-04-26T02:54:20;5.00;99.90
3866;DHT22;1948;53.250;10.412;2023-04-26T02:56:51;5.00;99.90
3866;DHT22;1948;53.250;10.412;2023-04-26T02:59:20;4.90;99.90
3866;DHT22;1948;53.250;10.412;2023-04-26T03:01:50;4.80;99.90
3866;DHT22;1948;53.250;10.412;2023-04-26T03:04:17;4.80;99.90
3866;DHT22;1948;53.250;10.412;2023-04-26T03:06:44;4.70;99.90
3866;DHT22;1948;53.250;10.412;2023-04-26T03:09:11;4.70;99.90
3866;DHT22;1948;53.250;10.412;2023-04-26T03:11:43;4.70;99.90
3866;DHT22;1948;53.250;10.412;2023-04-26T03:14:10;4.70;99.90
3866;DHT22;1948;53.250;10.412;2023-04-26T03:16:41;4.70;99.90
3866;DHT22;1948;53.250;10.412;2023-04-26T03:19:08;4.80;99.90
3866;DHT22;1948;53.250;10.412;2023-04-26T03:21:35;4.90;99.90
3866;DHT22;1948;53.250;10.412;2023-04-26T03:24:03;4.90;99.90
3866;DHT22;1948;53.250;10.412;2023-04-26T03:26:35;5.00;99.90
3866;DHT22;1948;53.250;10.412;2023-04-26T03:29:02;5.00;99.90
3866;DHT22;1948;53.250;10.412;2023-04-26T03:31:30;5.00;99.90
3866;DHT22;1948;53.250;10.412;2023-04-26T03:34:00;5.00;99.90
3866;DHT22;1948;53.250;10.412;2023-04-26T03:36:32;5.10;99.90
3866;DHT22;1948;53.250;10.412;2023-04-26T03:39:04;5.10;99.90
3866;DHT22;1948;53.250;10.412;2023-04-26T03:41:31;5.10;99.90
3866;DHT22;1948;53.250;10.412;2023-04-26T03:43:59;5.10;99.90
3866;DHT22;1948;53.250;10.412;2023-04-26T03:46:26;5.10;99.90
3866;DHT22;1948;53.250;10.412;2023-04-26T03:48:53;5.10;99.90
3866;DHT22;1948;53.250;10.412;2023-04-26T03:51:20;5.10;99.90
3866;DHT22;1948;53.250;10.412;2023-04-26T03:53:49;5.00;99.90
3866;DHT22;1948;53.250;10.412;2023-04-26T03:56:17;5.00;99.90
3866;DHT22;1948;53.250;10.412;2023-04-26T03:58:47;5.00;99.90
3866;DHT22;1948;53.250;10.412;2023-04-26T04:01:16;5.00;99.90
3866;DHT22;1948;53.250;10.412;2023-04-26T04:03:46;5.00;99.90
3866;DHT22;1948;53.250;10.412;2023-04-26T04:06:14;5.00;99.90
3866;DHT22;1948;53.250;10.412;2023-04-26T04:08:42;5.00;99.90
3866;DHT22;1948;53.250;10.412;2023-04-26T04:11:11;5.10;99.90
3866;DHT22;1948;53.250;10.412;2023-04-26T04:13:44;5.10;99.90
3866;DHT22;1948;53.250;10.412;2023-04-26T04:16:14;5.10;99.90
3866;DHT22;1948;53.250;10.412;2023-04-26T04:18:45;5.10;99.90
3866;DHT22;1948;53.250;10.412;2023-04-26T04:21:15;5.10;99.90
3866;DHT22;1948;53.250;10.412;2023-04-26T04:23:42;5.10;99.90
3866;DHT22;1948;53.250;10.412;2023-04-26T04:26:10;5.20;99.90
3866;DHT22;1948;53.250;10.412;2023-04-26T04:28:38;5.20;99.90
3866;DHT22;1948;53.250;10.412;2023-04-26T04:31:07;5.30;99.90
3866;DHT22;1948;53.250;10.412;2023-04-26T04:33:39;5.30;99.90
3866;DHT22;1948;53.250;10.412;2023-04-26T04:36:06;5.30;99.90
3866;DHT22;1948;53.250;10.412;2023-04-26T04:38:33;5.20;99.90
3866;DHT22;1948;53.250;10.412;2023-04-26T04:41:01;5.10;99.90
3866;DHT22;1948;53.250;10.412;2023-04-26T04:43:33;5.20;99.90
3866;DHT22;1948;53.250;10.412;2023-04-26T04:46:04;5.10;99.90
3866;DHT22;1948;53.250;10.412;2023-04-26T04:48:34;5.20;99.90
3866;DHT22;1948;53.250;10.412;2023-04-26T04:51:06;5.20;99.90
3866;DHT22;1948;53.250;10.412;2023-04-26T04:53:34;5.30;99.90
3866;DHT22;1948;53.250;10.412;2023-04-26T04:56:01;5.30;99.90
3866;DHT22;1948;53.250;10.412;2023-04-26T04:58:28;5.30;99.90
3866;DHT22;1948;53.250;10.412;2023-04-26T05:00:57;5.40;99.90
3866;DHT22;1948;53.250;10.412;2023-04-26T05:03:26;5.30;99.90
3866;DHT22;1948;53.250;10.412;2023-04-26T05:05:53;5.40;99.90
3866;DHT22;1948;53.250;10.412;2023-04-26T05:08:20;5.40;99.90
3866;DHT22;1948;53.250;10.412;2023-04-26T05:10:49;5.40;99.90
3866;DHT22;1948;53.250;10.412;2023-04-26T05:13:17;5.50;99.90
3866;DHT22;1948;53.250;10.412;2023-04-26T05:15:43;5.50;99.90
3866;DHT22;1948;53.250;10.412;2023-04-26T05:18:13;5.60;99.90
3866;DHT22;1948;53.250;10.412;2023-04-26T05:20:39;5.60;99.90
3866;DHT22;1948;53.250;10.412;2023-04-26T05:23:07;5.70;99.90
3866;DHT22;1948;53.250;10.412;2023-04-26T05:25:39;5.70;99.90
3866;DHT22;1948;53.250;10.412;2023-04-26T05:28:05;5.80;99.90
3866;DHT22;1948;53.250;10.412;2023-04-26T05:30:38;5.80;99.90
3866;DHT22;1948;53.250;10.412;2023-04-26T05:33:05;6.00;99.90
3866;DHT22;1948;53.250;10.412;2023-04-26T05:35:32;6.10;99.90
3866;DHT22;1948;53.250;10.412;2023-04-26T05:38:01;6.10;99.90
3866;DHT22;1948;53.250;10.412;2023-04-26T05:40:31;6.20;99.90
3866;DHT22;1948;53.250;10.412;2023-04-26T05:42:58;6.30;99.90
3866;DHT22;1948;53.250;10.412;2023-04-26T05:45:27;6.30;99.90
3866;DHT22;1948;53.250;10.412;2023-04-26T05:47:55;6.40;99.90
3866;DHT22;1948;53.250;10.412;2023-04-26T05:50:22;6.60;99.90
3866;DHT22;1948;53.250;10.412;2023-04-26T05:52:51;6.70;99.90
3866;DHT22;1948;53.250;10.412;2023-04-26T05:55:20;6.80;99.90
3866;DHT22;1948;53.250;10.412;2023-04-26T05:57:47;6.90;99.90
3866;DHT22;1948;53.250;10.412;2023-04-26T06:00:16;7.00;99.90
3866;DHT22;1948;53.250;10.412;2023-04-26T06:02:45;7.00;99.90
3866;DHT22;1948;53.250;10.412;2023-04-26T06:05:15;7.20;99.90
3866;DHT22;1948;53.250;10.412;2023-04-26T06:07:47;7.30;99.90
3866;DHT22;1948;53.250;10.412;2023-04-26T06:10:14;7.20;99.90
3866;DHT22;1948;53.250;10.412;2023-04-26T06:12:41;7.20;99.90
3866;DHT22;1948;53.250;10.412;2023-04-26T06:15:08;7.30;99.90
3866;DHT22;1948;53.250;10.412;2023-04-26T06:17:36;7.40;99.90
3866;DHT22;1948;53.250;10.412;2023-04-26T06:20:03;7.60;99.90
3866;DHT22;1948;53.250;10.412;2023-04-26T06:22:31;7.70;99.90
3866;DHT22;1948;53.250;10.412;2023-04-26T06:24:58;7.70;99.90
3866;DHT22;1948;53.250;10.412;2023-04-26T06:27:27;7.70;99.90
3866;DHT22;1948;53.250;10.412;2023-04-26T06:29:56;7.80;99.90
3866;DHT22;1948;53.250;10.412;2023-04-26T06:32:23;7.80;99.90
3866;DHT22;1948;53.250;10.412;2023-04-26T06:34:53;7.90;99.90
3866;DHT22;1948;53.250;10.412;2023-04-26T06:37:22;8.00;99.90
3866;DHT22;1948;53.250;10.412;2023-04-26T06:39:49;8.00;99.90
3866;DHT22;1948;53.250;10.412;2023-04-26T06:42:16;8.00;99.90
3866;DHT22;1948;53.250;10.412;2023-04-26T06:44:43;8.10;99.90
3866;DHT22;1948;53.250;10.412;2023-04-26T06:47:10;8.20;99.90
3866;DHT22;1948;53.250;10.412;2023-04-26T06:49:39;8.10;99.90
3866;DHT22;1948;53.250;10.412;2023-04-26T06:52:06;8.10;99.90
3866;DHT22;1948;53.250;10.412;2023-04-26T06:54:35;8.20;99.90
3866;DHT22;1948;53.250;10.412;2023-04-26T06:57:19;8.30;99.90
3866;DHT22;1948;53.250;10.412;2023-04-26T06:59:46;8.50;99.90
3866;DHT22;1948;53.250;10.412;2023-04-26T07:02:13;8.50;99.90
3866;DHT22;1948;53.250;10.412;2023-04-26T07:04:43;8.40;99.90
3866;DHT22;1948;53.250;10.412;2023-04-26T07:07:13;8.50;99.90
3866;DHT22;1948;53.250;10.412;2023-04-26T07:09:42;8.60;99.90
3866;DHT22;1948;53.250;10.412;2023-04-26T07:12:10;8.70;99.90
3866;DHT22;1948;53.250;10.412;2023-04-26T07:14:38;8.80;99.90
3866;DHT22;1948;53.250;10.412;2023-04-26T07:17:11;9.10;99.90
3866;DHT22;1948;53.250;10.412;2023-04-26T07:19:41;9.50;99.90
3866;DHT22;1948;53.250;10.412;2023-04-26T07:22:10;9.80;99.90
3866;DHT22;1948;53.250;10.412;2023-04-26T07:24:37;10.00;99.90
3866;DHT22;1948;53.250;10.412;2023-04-26T07:27:04;10.10;99.90
3866;DHT22;1948;53.250;10.412;2023-04-26T07:29:33;10.20;99.90
3866;DHT22;1948;53.250;10.412;2023-04-26T07:32:03;10.10;99.90
3866;DHT22;1948;53.250;10.412;2023-04-26T07:34:30;10.00;99.90
3866;DHT22;1948;53.250;10.412;2023-04-26T07:36:57;10.10;99.90
3866;DHT22;1948;53.250;10.412;2023-04-26T07:39:24;10.20;99.90
3866;DHT22;1948;53.250;10.412;2023-04-26T07:41:54;10.20;99.90
3866;DHT22;1948;53.250;10.412;2023-04-26T07:44:21;10.30;99.90
3866;DHT22;1948;53.250;10.412;2023-04-26T07:46:50;10.40;99.90
3866;DHT22;1948;53.250;10.412;2023-04-26T07:49:17;10.30;99.90
3866;DHT22;1948;53.250;10.412;2023-04-26T07:51:44;10.40;99.90
3866;DHT22;1948;53.250;10.412;2023-04-26T07:54:14;10.80;99.90
3866;DHT22;1948;53.250;10.412;2023-04-26T07:56:41;10.90;99.90
3866;DHT22;1948;53.250;10.412;2023-04-26T07:59:11;11.00;99.90
3866;DHT22;1948;53.250;10.412;2023-04-26T08:01:41;11.00;99.90
3866;DHT22;1948;53.250;10.412;2023-04-26T08:04:08;10.90;99.90
3866;DHT22;1948;53.250;10.412;2023-04-26T08:06:35;11.00;99.90
3866;DHT22;1948;53.250;10.412;2023-04-26T08:09:04;11.30;99.90
3866;DHT22;1948;53.250;10.412;2023-04-26T08:11:31;11.60;99.90
3866;DHT22;1948;53.250;10.412;2023-04-26T08:14:00;11.50;99.90
3866;DHT22;1948;53.250;10.412;2023-04-26T08:16:29;11.70;99.90
3866;DHT22;1948;53.250;10.412;2023-04-26T08:18:56;12.00;99.90
3866;DHT22;1948;53.250;10.412;2023-04-26T08:21:28;12.30;99.90
3866;DHT22;1948;53.250;10.412;2023-04-26T08:23:55;12.70;99.90
3866;DHT22;1948;53.250;10.412;2023-04-26T08:26:24;12.80;99.90
3866;DHT22;1948;53.250;10.412;2023-04-26T08:28:51;12.80;99.90
3866;DHT22;1948;53.250;10.412;2023-04-26T08:31:18;13.00;99.90
3866;DHT22;1948;53.250;10.412;2023-04-26T08:33:48;13.10;99.90
3866;DHT22;1948;53.250;10.412;2023-04-26T08:36:15;12.80;99.90
3866;DHT22;1948;53.250;10.412;2023-04-26T08:38:45;12.70;99.90
3866;DHT22;1948;53.250;10.412;2023-04-26T08:41:12;12.70;99.90
3866;DHT22;1948;53.250;10.412;2023-04-26T08:43:42;12.80;99.90
3866;DHT22;1948;53.250;10.412;2023-04-26T08:46:11;13.00;99.90
3866;DHT22;1948;53.250;10.412;2023-04-26T08:48:42;13.20;99.90
3866;DHT22;1948;53.250;10.412;2023-04-26T08:51:12;13.20;99.90
3866;DHT22;1948;53.250;10.412;2023-04-26T08:53:40;13.30;99.90
3866;DHT22;1948;53.250;10.412;2023-04-26T08:56:09;13.30;99.90
3866;DHT22;1948;53.250;10.412;2023-04-26T08:58:37;13.00;99.90
3866;DHT22;1948;53.250;10.412;2023-04-26T09:01:07;13.20;99.90
3866;DHT22;1948;53.250;10.412;2023-04-26T09:03:35;13.40;99.90
3866;DHT22;1948;53.250;10.412;2023-04-26T09:06:05;13.90;99.90
3866;DHT22;1948;53.250;10.412;2023-04-26T09:08:39;14.00;99.90
3866;DHT22;1948;53.250;10.412;2023-04-26T09:11:09;13.70;99.90
3866;DHT22;1948;53.250;10.412;2023-04-26T09:13:36;13.70;99.90
3866;DHT22;1948;53.250;10.412;2023-04-26T09:16:06;14.00;99.90
3866;DHT22;1948;53.250;10.412;2023-04-26T09:18:33;14.30;99.90
3866;DHT22;1948;53.250;10.412;2023-04-26T09:21:07;14.40;99.90
3866;DHT22;1948;53.250;10.412;2023-04-26T09:23:35;14.20;99.90
3866;DHT22;1948;53.250;10.412;2023-04-26T09:26:19;13.90;99.90
3866;DHT22;1948;53.250;10.412;2023-04-26T09:28:48;13.60;99.90
3866;DHT22;1948;53.250;10.412;2023-04-26T09:31:37;13.40;99.90
3866;DHT22;1948;53.250;10.412;2023-04-26T09:34:07;13.40;99.90
3866;DHT22;1948;53.250;10.412;2023-04-26T09:36:51;13.50;99.90
3866;DHT22;1948;53.250;10.412;2023-04-26T09:39:34;13.60;99.90
3866;DHT22;1948;53.250;10.412;2023-04-26T09:42:06;13.70;99.90
3866;DHT22;1948;53.250;10.412;2023-04-26T09:44:37;13.50;99.90
3866;DHT22;1948;53.250;10.412;2023-04-26T09:47:10;13.20;99.90
3866;DHT22;1948;53.250;10.412;2023-04-26T09:49:48;13.00;99.90
3866;DHT22;1948;53.250;10.412;2023-04-26T09:52:19;12.60;99.90
3866;DHT22;1948;53.250;10.412;2023-04-26T09:54:51;12.40;99.90
3866;DHT22;1948;53.250;10.412;2023-04-26T09:57:20;12.20;99.90
3866;DHT22;1948;53.250;10.412;2023-04-26T09:59:49;12.20;99.90
3866;DHT22;1948;53.250;10.412;2023-04-26T10:02:23;12.10;99.90
3866;DHT22;1948;53.250;10.412;2023-04-26T10:04:54;11.90;99.90
3866;DHT22;1948;53.250;10.412;2023-04-26T10:07:24;11.90;99.90
3866;DHT22;1948;53.250;10.412;2023-04-26T10:09:56;12.00;99.90
3866;DHT22;1948;53.250;10.412;2023-04-26T10:12:24;12.20;99.90
3866;DHT22;1948;53.250;10.412;2023-04-26T10:14:53;12.70;99.90
3866;DHT22;1948;53.250;10.412;2023-04-26T10:17:22;12.90;99.90
3866;DHT22;1948;53.250;10.412;2023-04-26T10:19:56;13.30;99.90
3866;DHT22;1948;53.250;10.412;2023-04-26T10:22:28;13.60;99.90
3866;DHT22;1948;53.250;10.412;2023-04-26T10:24:59;13.80;99.90
3866;DHT22;1948;53.250;10.412;2023-04-26T10:30:16;14.50;99.90
3866;DHT22;1948;53.250;10.412;2023-04-26T10:33:10;14.90;99.90
3866;DHT22;1948;53.250;10.412;2023-04-26T10:36:05;15.40;99.90
3866;DHT22;1948;53.250;10.412;2023-04-26T10:39:16;15.50;99.90
3866;DHT22;1948;53.250;10.412;2023-04-26T10:41:43;15.20;99.90
3866;DHT22;1948;53.250;10.412;2023-04-26T10:44:39;15.30;99.70
3866;DHT22;1948;53.250;10.412;2023-04-26T10:47:20;15.50;98.90
3866;DHT22;1948;53.250;10.412;2023-04-26T10:50:06;15.60;99.10
3866;DHT22;1948;53.250;10.412;2023-04-26T10:55:38;16.60;99.00
3866;DHT22;1948;53.250;10.412;2023-04-26T10:58:29;17.00;98.60
3866;DHT22;1948;53.250;10.412;2023-04-26T11:01:06;16.70;98.90
3866;DHT22;1948;53.250;10.412;2023-04-26T11:06:29;15.30;99.90
3866;DHT22;1948;53.250;10.412;2023-04-26T11:09:48;14.40;99.90
3866;DHT22;1948;53.250;10.412;2023-04-26T11:12:16;14.30;99.90
3866;DHT22;1948;53.250;10.412;2023-04-26T11:14:47;14.40;99.90
3866;DHT22;1948;53.250;10.412;2023-04-26T11:17:16;14.10;99.90
3866;DHT22;1948;53.250;10.412;2023-04-26T11:19:46;14.00;99.90
3866;DHT22;1948;53.250;10.412;2023-04-26T11:22:13;14.00;99.90
3866;DHT22;1948;53.250;10.412;2023-04-26T11:24:44;14.00;99.90
3866;DHT22;1948;53.250;10.412;2023-04-26T11:27:11;14.20;99.90
3866;DHT22;1948;53.250;10.412;2023-04-26T11:29:38;14.80;99.90
3866;DHT22;1948;53.250;10.412;2023-04-26T11:32:08;15.30;99.90
3866;DHT22;1948;53.250;10.412;2023-04-26T11:34:37;15.50;99.90
3866;DHT22;1948;53.250;10.412;2023-04-26T11:37:09;15.40;99.90
3866;DHT22;1948;53.250;10.412;2023-04-26T11:39:37;14.60;99.90
3866;DHT22;1948;53.250;10.412;2023-04-26T11:42:08;14.10;99.90
3866;DHT22;1948;53.250;10.412;2023-04-26T11:44:37;13.60;99.90
3866;DHT22;1948;53.250;10.412;2023-04-26T11:47:06;13.20;99.90
3866;DHT22;1948;53.250;10.412;2023-04-26T11:49:38;12.90;99.90
3866;DHT22;1948;53.250;10.412;2023-04-26T11:52:05;12.70;99.90
3866;DHT22;1948;53.250;10.412;2023-04-26T11:54:35;12.80;99.90
3866;DHT22;1948;53.250;10.412;2023-04-26T11:57:15;12.70;99.90
3866;DHT22;1948;53.250;10.412;2023-04-26T11:59:46;12.60;99.90
3866;DHT22;1948;53.250;10.412;2023-04-26T12:02:13;12.50;99.90
3866;DHT22;1948;53.250;10.412;2023-04-26T12:04:44;12.30;99.90
3866;DHT22;1948;53.250;10.412;2023-04-26T12:07:17;12.20;99.90
3866;DHT22;1948;53.250;10.412;2023-04-26T12:09:45;11.90;99.90
3866;DHT22;1948;53.250;10.412;2023-04-26T12:12:12;12.00;99.90
3866;DHT22;1948;53.250;10.412;2023-04-26T12:14:42;12.00;99.90
3866;DHT22;1948;53.250;10.412;2023-04-26T12:17:13;12.70;99.90
3866;DHT22;1948;53.250;10.412;2023-04-26T12:19:48;13.50;99.90
3866;DHT22;1948;53.250;10.412;2023-04-26T12:22:19;14.20;99.90
3866;DHT22;1948;53.250;10.412;2023-04-26T12:24:47;14.60;99.90
3866;DHT22;1948;53.250;10.412;2023-04-26T12:27:20;14.70;99.90
3866;DHT22;1948;53.250;10.412;2023-04-26T12:29:51;14.80;99.90
3866;DHT22;1948;53.250;10.412;2023-04-26T12:32:20;14.50;99.90
3866;DHT22;1948;53.250;10.412;2023-04-26T12:34:48;14.10;99.90
3866;DHT22;1948;53.250;10.412;2023-04-26T12:37:15;13.90;99.90
3866;DHT22;1948;53.250;10.412;2023-04-26T12:39:48;13.60;99.90
3866;DHT22;1948;53.250;10.412;2023-04-26T12:42:20;13.30;99.90
3866;DHT22;1948;53.250;10.412;2023-04-26T12:44:49;13.20;99.90
3866;DHT22;1948;53.250;10.412;2023-04-26T12:47:16;13.00;99.90
3866;DHT22;1948;53.250;10.412;2023-04-26T12:49:43;12.70;99.90
3866;DHT22;1948;53.250;10.412;2023-04-26T12:52:14;12.70;99.90
3866;DHT22;1948;53.250;10.412;2023-04-26T12:54:40;12.70;99.90
3866;DHT22;1948;53.250;10.412;2023-04-26T12:57:10;12.70;99.90
3866;DHT22;1948;53.250;10.412;2023-04-26T12:59:39;12.80;99.90
3866;DHT22;1948;53.250;10.412;2023-04-26T13:02:09;13.00;99.90
3866;DHT22;1948;53.250;10.412;2023-04-26T13:04:36;12.80;99.90
3866;DHT22;1948;53.250;10.412;2023-04-26T13:07:07;12.80;99.90
3866;DHT22;1948;53.250;10.412;2023-04-26T13:09:36;12.20;99.90
3866;DHT22;1948;53.250;10.412;2023-04-26T13:12:03;11.90;99.90
3866;DHT22;1948;53.250;10.412;2023-04-26T13:14:33;11.90;99.90
3866;DHT22;1948;53.250;10.412;2023-04-26T13:17:00;11.40;99.90
3866;DHT22;1948;53.250;10.412;2023-04-26T13:19:27;11.40;99.90
3866;DHT22;1948;53.250;10.412;2023-04-26T13:21:57;11.20;99.90
3866;DHT22;1948;53.250;10.412;2023-04-26T13:24:26;11.10;99.90
3866;DHT22;1948;53.250;10.412;2023-04-26T13:26:53;10.80;99.90
3866;DHT22;1948;53.250;10.412;2023-04-26T13:29:21;10.80;99.90
3866;DHT22;1948;53.250;10.412;2023-04-26T13:31:48;10.80;99.90
3866;DHT22;1948;53.250;10.412;2023-04-26T13:34:15;10.80;99.90
3866;DHT22;1948;53.250;10.412;2023-04-26T13:36:41;10.90;99.90
3866;DHT22;1948;53.250;10.412;2023-04-26T13:39:11;11.10;99.90
3866;DHT22;1948;53.250;10.412;2023-04-26T13:41:38;11.50;99.90
3866;DHT22;1948;53.250;10.412;2023-04-26T13:44:07;12.00;99.90
3866;DHT22;1948;53.250;10.412;2023-04-26T13:46:34;12.60;99.90
3866;DHT22;1948;53.250;10.412;2023-04-26T13:49:06;12.70;99.90
3866;DHT22;1948;53.250;10.412;2023-04-26T13:51:33;12.60;99.90
3866;DHT22;1948;53.250;10.412;2023-04-26T13:54:03;12.70;99.90
3866;DHT22;1948;53.250;10.412;2023-04-26T13:56:32;12.80;99.90
3866;DHT22;1948;53.250;10.412;2023-04-26T13:59:04;13.00;99.90
3866;DHT22;1948;53.250;10.412;2023-04-26T14:01:37;13.30;99.90
3866;DHT22;1948;53.250;10.412;2023-04-26T14:04:06;13.60;99.90
3866;DHT22;1948;53.250;10.412;2023-04-26T14:06:37;14.00;99.90
3866;DHT22;1948;53.250;10.412;2023-04-26T14:09:04;14.20;99.90
3866;DHT22;1948;53.250;10.412;2023-04-26T14:11:34;14.10;99.90
3866;DHT22;1948;53.250;10.412;2023-04-26T14:14:01;13.70;99.90
3866;DHT22;1948;53.250;10.412;2023-04-26T14:16:28;13.50;99.90
3866;DHT22;1948;53.250;10.412;2023-04-26T14:18:57;13.50;99.90
3866;DHT22;1948;53.250;10.412;2023-04-26T14:21:26;13.70;99.90
3866;DHT22;1948;53.250;10.412;2023-04-26T14:23:54;13.70;99.90
3866;DHT22;1948;53.250;10.412;2023-04-26T14:26:23;13.70;99.90
3866;DHT22;1948;53.250;10.412;2023-04-26T14:28:56;13.70;99.90
3866;DHT22;1948;53.250;10.412;2023-04-26T14:31:23;13.70;99.90
3866;DHT22;1948;53.250;10.412;2023-04-26T14:33:53;13.80;99.90
3866;DHT22;1948;53.250;10.412;2023-04-26T14:36:22;13.80;99.90
3866;DHT22;1948;53.250;10.412;2023-04-26T14:38:49;13.90;99.90
3866;DHT22;1948;53.250;10.412;2023-04-26T14:41:17;13.90;99.90
3866;DHT22;1948;53.250;10.412;2023-04-26T14:43:47;13.90;99.90
3866;DHT22;1948;53.250;10.412;2023-04-26T14:46:16;13.60;99.90
3866;DHT22;1948;53.250;10.412;2023-04-26T14:48:43;13.40;99.90
3866;DHT22;1948;53.250;10.412;2023-04-26T14:51:13;13.40;99.90
3866;DHT22;1948;53.250;10.412;2023-04-26T14:53:39;13.30;99.90
3866;DHT22;1948;53.250;10.412;2023-04-26T14:56:06;13.20;99.90
3866;DHT22;1948;53.250;10.412;2023-04-26T14:58:36;13.20;99.90
3866;DHT22;1948;53.250;10.412;2023-04-26T15:01:03;13.10;99.90
3866;DHT22;1948;53.250;10.412;2023-04-26T15:03:30;12.90;99.90
3866;DHT22;1948;53.250;10.412;2023-04-26T15:05:58;12.80;99.90
3866;DHT22;1948;53.250;10.412;2023-04-26T15:08:25;12.80;99.90
3866;DHT22;1948;53.250;10.412;2023-04-26T15:10:53;12.80;99.90
3866;DHT22;1948;53.250;10.412;2023-04-26T15:13:19;12.70;99.90
3866;DHT22;1948;53.250;10.412;2023-04-26T15:15:46;12.80;99.90
3866;DHT22;1948;53.250;10.412;2023-04-26T15:18:13;12.70;99.90
3866;DHT22;1948;53.250;10.412;2023-04-26T15:20:40;12.70;99.90
3866;DHT22;1948;53.250;10.412;2023-04-26T15:23:07;12.70;99.90
3866;DHT22;1948;53.250;10.412;2023-04-26T15:25:35;12.60;99.90
3866;DHT22;1948;53.250;10.412;2023-04-26T15:28:04;12.50;99.90
3866;DHT22;1948;53.250;10.412;2023-04-26T15:30:31;12.50;99.90
3866;DHT22;1948;53.250;10.412;2023-04-26T15:32:58;12.40;99.90
3866;DHT22;1948;53.250;10.412;2023-04-26T15:35:25;12.30;99.90
3866;DHT22;1948;53.250;10.412;2023-04-26T15:37:52;12.20;99.90
3866;DHT22;1948;53.250;10.412;2023-04-26T15:40:22;12.10;99.90
3866;DHT22;1948;53.250;10.412;2023-04-26T15:42:55;12.10;99.90
3866;DHT22;1948;53.250;10.412;2023-04-26T15:45:22;12.00;99.90
3866;DHT22;1948;53.250;10.412;2023-04-26T15:47:49;12.10;99.90
3866;DHT22;1948;53.250;10.412;2023-04-26T15:50:20;12.20;99.90
3866;DHT22;1948;53.250;10.412;2023-04-26T15:52:47;12.20;99.90
3866;DHT22;1948;53.250;10.412;2023-04-26T15:55:14;12.30;99.90
3866;DHT22;1948;53.250;10.412;2023-04-26T15:57:41;12.40;99.90
3866;DHT22;1948;53.250;10.412;2023-04-26T16:00:12;12.40;99.90
3866;DHT22;1948;53.250;10.412;2023-04-26T16:02:42;12.50;99.90
3866;DHT22;1948;53.250;10.412;2023-04-26T16:05:13;12.60;99.90
3866;DHT22;1948;53.250;10.412;2023-04-26T16:07:40;12.60;99.90
3866;DHT22;1948;53.250;10.412;2023-04-26T16:10:10;12.60;99.90
3866;DHT22;1948;53.250;10.412;2023-04-26T16:12:40;12.50;99.90
3866;DHT22;1948;53.250;10.412;2023-04-26T16:15:09;12.50;99.90
3866;DHT22;1948;53.250;10.412;2023-04-26T16:17:39;12.40;99.90